createdAt,value
2023-02-08T00:01:47.437Z,66.19
2023-02-08T00:04:32.666Z,65.69
2023-02-08T00:07:18.004Z,66.00
2023-02-08T00:10:05.221Z,66.09
2023-02-08T00:12:52.156Z,66.63
2023-02-08T00:15:42.634Z,66.41
2023-02-08T00:18:27.794Z,66.48
2023-02-08T00:21:16.065Z,66.81
2023-02-08T00:24:01.886Z,66.43
2023-02-08T00:26:46.974Z,66.85
2023-02-08T00:29:32.384Z,66.85
2023-02-08T00:32:17.991Z,67.21
2023-02-08T00:35:03.253Z,66.75
2023-02-08T00:37:50.080Z,67.25
2023-02-08T00:40:36.534Z,67.50
2023-02-08T00:43:21.901Z,67.11
2023-02-08T00:46:08.137Z,66.51
2023-02-08T00:48:54.281Z,67.31
2023-02-08T00:51:39.577Z,67.06
2023-02-08T00:54:24.735Z,67.87
2023-02-08T00:57:10.271Z,89.88
2023-02-08T00:59:55.951Z,97.46
2023-02-08T01:02:41.288Z,83.29
2023-02-08T01:05:26.888Z,75.20
2023-02-08T01:08:12.174Z,72.11
2023-02-08T01:11:05.889Z,70.36
2023-02-08T01:13:54.386Z,69.65
2023-02-08T01:16:40.071Z,69.49
2023-02-08T01:19:25.307Z,69.04
2023-02-08T01:22:10.602Z,68.94
2023-02-08T01:24:56.091Z,68.72
2023-02-08T01:27:41.507Z,68.71
2023-02-08T01:30:26.945Z,67.94
2023-02-08T01:33:12.325Z,67.90
2023-02-08T01:35:57.835Z,68.01
2023-02-08T01:38:44.597Z,68.07
2023-02-08T01:41:36.333Z,68.81
2023-02-08T01:45:20.784Z,69.22
2023-02-08T01:48:14.781Z,68.72
2023-02-08T01:51:03.225Z,68.77
2023-02-08T01:53:52.771Z,68.37
2023-02-08T01:56:41.401Z,68.80
2023-02-08T01:59:34.056Z,68.22
2023-02-08T02:02:22.834Z,68.50
2023-02-08T02:05:08.826Z,69.23
2023-02-08T02:07:56.844Z,69.15
2023-02-08T02:10:43.109Z,69.21
2023-02-08T02:13:29.116Z,69.09
2023-02-08T02:16:14.462Z,69.29
2023-02-08T02:18:59.870Z,69.16
2023-02-08T02:22:32.708Z,69.60
2023-02-08T02:25:29.757Z,69.88
2023-02-08T02:28:43.073Z,69.69
2023-02-08T02:31:41.376Z,69.95
2023-02-08T02:34:40.760Z,70.51
2023-02-08T02:37:37.561Z,70.02
2023-02-08T02:40:36.418Z,70.72
2023-02-08T02:43:54.003Z,70.06
2023-02-08T02:46:43.103Z,70.02
2023-02-08T02:49:47.361Z,70.65
2023-02-08T02:52:42.204Z,70.21
2023-02-08T02:55:33.616Z,70.02
2023-02-08T02:58:23.778Z,69.52
2023-02-08T03:01:09.314Z,68.71
2023-02-08T03:03:55.267Z,68.41
2023-02-08T03:06:56.953Z,68.01
2023-02-08T03:09:45.433Z,68.15
2023-02-08T03:12:49.616Z,68.38
2023-02-08T03:16:19.369Z,69.03
2023-02-08T03:19:20.157Z,69.13
2023-02-08T03:22:28.447Z,69.22
2023-02-08T03:25:52.404Z,68.75
2023-02-08T03:28:50.925Z,68.58
2023-02-08T03:31:49.714Z,69.38
2023-02-08T03:34:52.982Z,68.73
2023-02-08T03:37:51.963Z,69.25
2023-02-08T03:40:45.347Z,68.52
2023-02-08T03:43:37.234Z,68.56
2023-02-08T03:46:48.546Z,68.81
2023-02-08T03:49:36.478Z,68.60
2023-02-08T03:52:22.588Z,68.18
2023-02-08T03:55:13.300Z,68.48
2023-02-08T03:58:11.887Z,68.41
2023-02-08T04:01:26.612Z,68.80
2023-02-08T04:04:14.780Z,69.22
2023-02-08T04:07:00.322Z,68.62
2023-02-08T04:09:46.093Z,68.88
2023-02-08T04:12:31.355Z,68.94
2023-02-08T04:15:16.945Z,67.93
2023-02-08T04:18:02.288Z,68.33
2023-02-08T04:20:47.877Z,68.47
2023-02-08T04:23:33.221Z,68.76
2023-02-08T04:26:18.589Z,68.52
2023-02-08T04:29:04.127Z,68.61
2023-02-08T04:31:49.717Z,69.00
2023-02-08T04:34:35.153Z,69.36
2023-02-08T04:37:20.625Z,69.66
2023-02-08T04:40:06.222Z,69.57
2023-02-08T04:42:51.584Z,69.04
2023-02-08T04:45:37.653Z,68.86
2023-02-08T04:48:23.337Z,69.43
2023-02-08T04:51:08.504Z,69.04
2023-02-08T04:53:53.849Z,69.30
2023-02-08T04:56:39.397Z,69.52
2023-02-08T04:59:24.662Z,69.08
2023-02-08T05:02:09.849Z,68.58
2023-02-08T05:04:55.046Z,68.27
2023-02-08T05:07:40.668Z,68.37
2023-02-08T05:10:26.696Z,68.95
2023-02-08T05:13:11.926Z,69.17
2023-02-08T05:15:57.819Z,69.10
2023-02-08T05:18:43.291Z,68.97
2023-02-08T05:21:28.688Z,68.87
2023-02-08T05:24:13.902Z,68.79
2023-02-08T05:26:59.329Z,68.29
2023-02-08T05:29:44.559Z,68.57
2023-02-08T05:32:29.968Z,68.71
2023-02-08T05:35:15.126Z,69.19
2023-02-08T05:38:00.614Z,69.78
2023-02-08T05:40:45.871Z,69.36
2023-02-08T05:43:31.145Z,69.59
2023-02-08T05:46:16.441Z,69.74
2023-02-08T05:49:01.727Z,69.65
2023-02-08T05:51:46.769Z,69.49
2023-02-08T05:54:31.954Z,69.70
2023-02-08T05:57:17.440Z,70.25
2023-02-08T06:00:04.778Z,70.46
2023-02-08T06:02:50.031Z,70.77
2023-02-08T06:05:37.949Z,70.47
2023-02-08T06:08:23.398Z,70.33
2023-02-08T06:11:08.896Z,69.72
2023-02-08T06:13:54.398Z,69.88
2023-02-08T06:16:40.025Z,69.55
2023-02-08T06:19:25.387Z,68.66
2023-02-08T06:22:10.726Z,68.89
2023-02-08T06:24:55.912Z,68.76
2023-02-08T06:27:41.216Z,68.76
2023-02-08T06:30:26.524Z,68.76
2023-02-08T06:33:13.409Z,69.23
2023-02-08T06:35:59.806Z,68.88
2023-02-08T06:38:45.015Z,68.80
2023-02-08T06:41:30.109Z,68.70
2023-02-08T06:44:15.530Z,68.84
2023-02-08T06:47:00.748Z,68.41
2023-02-08T06:49:45.943Z,68.94
2023-02-08T06:52:31.612Z,68.58
2023-02-08T06:55:16.795Z,69.37
2023-02-08T06:58:02.084Z,68.87
2023-02-08T07:00:47.272Z,69.32
2023-02-08T07:03:32.956Z,69.88
2023-02-08T07:06:19.879Z,68.79
2023-02-08T07:09:05.103Z,68.93
2023-02-08T07:11:50.706Z,68.27
2023-02-08T07:14:39.122Z,68.15
2023-02-08T07:17:24.217Z,68.02
2023-02-08T07:20:11.466Z,68.26
2023-02-08T07:22:56.525Z,68.27
2023-02-08T07:25:42.032Z,67.98
2023-02-08T07:28:27.712Z,68.06
2023-02-08T07:31:16.037Z,67.80
2023-02-08T07:34:01.199Z,67.87
2023-02-08T07:36:46.587Z,67.63
2023-02-08T07:39:32.118Z,68.01
2023-02-08T07:42:17.659Z,67.86
2023-02-08T07:45:13.407Z,67.31
2023-02-08T07:47:58.910Z,66.86
2023-02-08T07:50:44.469Z,66.70
2023-02-08T07:53:30.773Z,66.40
2023-02-08T07:56:16.107Z,67.02
2023-02-08T07:59:01.564Z,67.28
2023-02-08T08:01:47.091Z,66.78
2023-02-08T08:04:32.468Z,67.35
2023-02-08T08:07:18.019Z,67.32
2023-02-08T08:10:04.573Z,66.87
2023-02-08T08:12:49.721Z,67.14
2023-02-08T08:15:35.218Z,66.33
2023-02-08T08:18:20.393Z,66.19
2023-02-08T08:21:06.500Z,65.87
2023-02-08T08:23:51.431Z,65.71
2023-02-08T08:26:36.902Z,65.97
2023-02-08T08:29:22.369Z,65.21
2023-02-08T08:32:08.470Z,65.31
2023-02-08T08:34:54.426Z,65.31
2023-02-08T08:37:39.887Z,64.98
2023-02-08T08:40:25.288Z,64.65
2023-02-08T08:43:10.514Z,64.47
2023-02-08T08:45:55.730Z,64.25
2023-02-08T08:48:41.215Z,64.34
2023-02-08T08:51:26.548Z,64.07
2023-02-08T08:54:12.111Z,63.69
2023-02-08T08:56:57.351Z,64.06
2023-02-08T08:59:42.698Z,63.78
2023-02-08T09:02:28.193Z,63.28
2023-02-08T09:05:13.702Z,63.55
2023-02-08T09:08:01.316Z,62.21
2023-02-08T09:10:46.605Z,61.90
2023-02-08T09:13:32.073Z,61.02
2023-02-08T09:16:18.021Z,61.55
2023-02-08T09:19:08.214Z,61.29
2023-02-08T09:21:53.376Z,61.24
2023-02-08T09:24:39.941Z,61.25
2023-02-08T09:27:25.426Z,60.89
2023-02-08T09:30:11.231Z,60.73
2023-02-08T09:32:56.546Z,80.49
2023-02-08T09:35:44.253Z,62.79
2023-02-08T09:38:29.798Z,60.15
2023-02-08T09:41:33.828Z,58.15
2023-02-08T09:44:25.242Z,57.20
2023-02-08T09:47:20.958Z,57.65
2023-02-08T09:50:40.418Z,56.90
2023-02-08T09:53:35.110Z,57.20
2023-02-08T09:56:28.068Z,57.77
2023-02-08T09:59:21.124Z,57.51
2023-02-08T10:02:26.838Z,57.85
2023-02-08T10:05:15.700Z,57.94
2023-02-08T10:08:01.760Z,58.15
2023-02-08T10:10:54.878Z,56.36
2023-02-08T10:13:43.472Z,57.05
2023-02-08T10:16:50.869Z,56.49
2023-02-08T10:19:41.019Z,56.79
2023-02-08T10:22:49.680Z,57.03
2023-02-08T10:25:47.138Z,56.29
2023-02-08T10:28:54.325Z,56.57
2023-02-08T10:31:46.093Z,56.04
2023-02-08T10:34:52.535Z,55.53
2023-02-08T10:37:42.062Z,53.83
2023-02-08T10:40:32.608Z,53.87
2023-02-08T10:43:36.410Z,52.39
2023-02-08T10:46:37.878Z,51.94
2023-02-08T10:49:22.989Z,52.25
2023-02-08T10:52:08.491Z,52.67
2023-02-08T10:54:57.503Z,51.26
2023-02-08T10:57:44.417Z,52.07
2023-02-08T11:00:40.474Z,50.96
2023-02-08T11:03:29.219Z,50.26
2023-02-08T11:06:27.735Z,51.52
2023-02-08T11:09:30.663Z,52.57
2023-02-08T11:12:20.811Z,52.83
2023-02-08T11:15:20.870Z,52.98
2023-02-08T11:18:07.941Z,51.60
2023-02-08T11:20:59.735Z,52.12
2023-02-08T11:23:51.339Z,50.84
2023-02-08T11:26:37.707Z,51.22
2023-02-08T11:29:29.130Z,51.56
2023-02-08T11:32:19.965Z,51.34
2023-02-08T11:35:22.726Z,51.38
2023-02-08T11:38:19.312Z,51.13
2023-02-08T11:41:15.734Z,51.94
2023-02-08T11:44:06.714Z,52.07
2023-02-08T11:46:53.727Z,52.22
2023-02-08T11:49:41.646Z,52.32
2023-02-08T11:52:33.243Z,52.14
2023-02-08T11:55:18.378Z,51.82
2023-02-08T11:58:17.920Z,52.55
2023-02-08T12:01:18.648Z,52.91
2023-02-08T12:04:07.721Z,52.30
2023-02-08T12:07:17.330Z,51.50
2023-02-08T12:10:15.002Z,52.11
2023-02-08T12:13:12.528Z,52.14
2023-02-08T12:16:03.553Z,52.01
2023-02-08T12:19:07.692Z,52.21
2023-02-08T12:22:05.940Z,52.87
2023-02-08T12:25:14.394Z,51.88
2023-02-08T12:28:14.138Z,51.19
2023-02-08T12:31:16.578Z,51.49
2023-02-08T12:34:17.644Z,51.50
2023-02-08T12:37:49.362Z,50.93
2023-02-08T12:40:59.392Z,51.55
2023-02-08T12:44:03.251Z,50.96
2023-02-08T12:46:54.623Z,50.99
2023-02-08T12:49:55.128Z,51.55
2023-02-08T12:53:03.232Z,51.56
2023-02-08T12:55:51.131Z,51.01
2023-02-08T12:58:50.028Z,51.71
2023-02-08T13:01:43.156Z,52.04
2023-02-08T13:04:46.134Z,51.30
2023-02-08T13:07:38.597Z,51.30
2023-02-08T13:10:40.640Z,50.96
2023-02-08T13:13:39.258Z,50.33
2023-02-08T13:16:30.613Z,50.62
2023-02-08T13:19:59.731Z,50.79
2023-02-08T13:22:46.903Z,50.59
2023-02-08T13:25:37.141Z,51.02
2023-02-08T13:28:24.397Z,50.99
2023-02-08T13:31:20.283Z,50.68
2023-02-08T13:34:14.575Z,51.04
2023-02-08T13:37:07.097Z,50.61
2023-02-08T13:40:08.429Z,51.21
2023-02-08T13:43:34.800Z,50.59
2023-02-08T13:46:23.101Z,50.18
2023-02-08T13:49:46.348Z,50.43
2023-02-08T13:52:47.541Z,50.41
2023-02-08T13:55:57.411Z,51.00
2023-02-08T13:58:42.740Z,50.40
2023-02-08T14:01:33.037Z,50.19
2023-02-08T14:04:31.980Z,50.45
2023-02-08T14:07:29.967Z,50.62
2023-02-08T14:10:21.101Z,51.19
2023-02-08T14:13:22.992Z,52.39
2023-02-08T14:16:29.219Z,51.76
2023-02-08T14:19:21.962Z,51.87
2023-02-08T14:22:13.479Z,50.90
2023-02-08T14:25:01.957Z,50.88
2023-02-08T14:27:53.881Z,51.09
2023-02-08T14:30:39.633Z,51.02
2023-02-08T14:33:37.367Z,50.86
2023-02-08T14:36:27.651Z,51.06
2023-02-08T14:39:24.406Z,51.37
2023-02-08T14:42:13.908Z,51.56
2023-02-08T14:45:00.573Z,51.15
2023-02-08T14:47:48.864Z,51.71
2023-02-08T14:50:39.896Z,51.53
2023-02-08T14:53:46.842Z,52.64
2023-02-08T14:56:37.269Z,52.51
2023-02-08T14:59:27.389Z,52.99
2023-02-08T15:02:20.032Z,52.99
2023-02-08T15:05:09.994Z,53.52
2023-02-08T15:07:58.039Z,54.23
2023-02-08T15:10:45.090Z,53.62
2023-02-08T15:13:31.174Z,53.07
2023-02-08T15:16:16.987Z,53.13
2023-02-08T15:19:05.061Z,53.62
2023-02-08T15:21:50.899Z,53.47
2023-02-08T15:24:36.201Z,53.74
2023-02-08T15:27:27.379Z,54.13
2023-02-08T15:30:27.073Z,53.87
2023-02-08T15:33:17.871Z,52.99
2023-02-08T15:36:14.822Z,53.21
2023-02-08T15:39:24.882Z,53.46
2023-02-08T15:42:18.873Z,53.50
2023-02-08T15:45:04.920Z,53.95
2023-02-08T15:47:51.476Z,54.37
2023-02-08T15:50:37.240Z,54.20
2023-02-08T15:53:23.746Z,54.80
2023-02-08T15:56:09.808Z,54.59
2023-02-08T15:58:59.218Z,54.81
2023-02-08T16:01:47.904Z,54.90
2023-02-08T16:04:42.745Z,55.29
2023-02-08T16:07:33.751Z,54.99
2023-02-08T16:10:30.822Z,55.49
2023-02-08T16:13:26.300Z,55.43
2023-02-08T16:16:26.337Z,55.81
2023-02-08T16:19:32.006Z,55.56
2023-02-08T16:22:29.425Z,56.14
2023-02-08T16:25:35.785Z,56.05
2023-02-08T16:28:27.945Z,56.48
2023-02-08T16:31:20.612Z,56.42
2023-02-08T16:34:13.292Z,56.65
2023-02-08T16:36:59.092Z,56.57
2023-02-08T16:39:54.701Z,56.51
2023-02-08T16:42:40.264Z,56.61
2023-02-08T16:45:25.587Z,56.88
2023-02-08T16:48:35.913Z,56.75
2023-02-08T16:51:23.694Z,56.48
2023-02-08T16:54:13.528Z,57.11
2023-02-08T16:57:04.625Z,56.98
2023-02-08T16:59:50.024Z,57.70
2023-02-08T17:02:35.484Z,57.79
2023-02-08T17:05:23.974Z,57.29
2023-02-08T17:08:16.958Z,57.97
2023-02-08T17:11:02.318Z,58.26
2023-02-08T17:13:47.826Z,58.31
2023-02-08T17:16:35.147Z,58.37
2023-02-08T17:19:22.383Z,58.27
2023-02-08T17:22:07.364Z,58.54
2023-02-08T17:24:53.195Z,58.66
2023-02-08T17:27:38.950Z,58.50
2023-02-08T17:30:25.663Z,58.59
2023-02-08T17:33:20.405Z,59.12
2023-02-08T17:36:10.489Z,58.64
2023-02-08T17:38:55.624Z,58.95
2023-02-08T17:41:41.112Z,58.84
2023-02-08T17:44:26.478Z,58.80
2023-02-08T17:47:11.690Z,59.12
2023-02-08T17:49:57.526Z,59.08
2023-02-08T17:52:42.873Z,59.60
2023-02-08T17:55:28.278Z,59.36
2023-02-08T17:58:13.805Z,59.28
2023-02-08T18:00:59.056Z,59.31
2023-02-08T18:03:50.432Z,59.67
2023-02-08T18:06:36.114Z,59.39
2023-02-08T18:09:21.499Z,59.46
2023-02-08T18:12:07.189Z,59.79
2023-02-08T18:14:52.776Z,59.84
2023-02-08T18:17:38.546Z,59.88
2023-02-08T18:20:23.763Z,59.92
2023-02-08T18:23:09.246Z,59.93
2023-02-08T18:26:07.048Z,60.27
2023-02-08T18:28:52.856Z,60.17
2023-02-08T18:31:38.745Z,59.95
2023-02-08T18:34:24.140Z,60.40
2023-02-08T18:37:10.154Z,60.16
2023-02-08T18:39:55.693Z,59.77
2023-02-08T18:42:41.179Z,59.98
2023-02-08T18:45:26.475Z,60.01
2023-02-08T18:48:13.148Z,59.83
2023-02-08T18:51:02.791Z,60.37
2023-02-08T18:53:51.558Z,60.09
2023-02-08T18:56:36.938Z,60.54
2023-02-08T18:59:22.683Z,60.73
2023-02-08T19:02:08.573Z,61.16
2023-02-08T19:04:53.749Z,61.04
2023-02-08T19:07:40.040Z,61.46
2023-02-08T19:10:25.573Z,61.47
2023-02-08T19:13:10.897Z,61.42
2023-02-08T19:15:56.159Z,61.40
2023-02-08T19:18:41.693Z,61.61
2023-02-08T19:21:28.509Z,61.92
2023-02-08T19:24:15.227Z,61.69
2023-02-08T19:27:00.991Z,61.84
2023-02-08T19:29:46.223Z,61.58
2023-02-08T19:32:31.399Z,62.01
2023-02-08T19:35:16.681Z,62.13
2023-02-08T19:38:01.760Z,62.25
2023-02-08T19:40:53.620Z,62.15
2023-02-08T19:43:39.100Z,61.81
2023-02-08T19:46:27.476Z,62.07
2023-02-08T19:49:21.158Z,62.51
2023-02-08T19:52:06.391Z,62.45
2023-02-08T19:54:52.868Z,62.80
2023-02-08T19:57:39.992Z,62.54
2023-02-08T20:00:26.575Z,62.81
2023-02-08T20:03:21.531Z,62.90
2023-02-08T20:06:14.722Z,62.79
2023-02-08T20:09:03.917Z,62.45
2023-02-08T20:11:57.110Z,62.57
2023-02-08T20:14:43.564Z,62.56
2023-02-08T20:17:29.012Z,62.49
2023-02-08T20:20:14.555Z,62.79
2023-02-08T20:23:02.037Z,63.27
2023-02-08T20:25:47.440Z,63.25
2023-02-08T20:28:32.681Z,63.36
2023-02-08T20:31:22.286Z,63.51
2023-02-08T20:34:08.194Z,63.29
2023-02-08T20:37:06.441Z,63.80
2023-02-08T20:39:52.227Z,63.46
2023-02-08T20:42:37.550Z,63.58
2023-02-08T20:45:22.938Z,63.56
2023-02-08T20:48:11.159Z,63.64
2023-02-08T20:51:04.447Z,63.52
2023-02-08T20:53:52.362Z,63.18
2023-02-08T20:56:38.595Z,63.29
2023-02-08T20:59:24.122Z,63.84
2023-02-08T21:02:16.831Z,63.52
2023-02-08T21:05:02.183Z,63.54
2023-02-08T21:07:47.436Z,63.40
2023-02-08T21:10:36.593Z,63.38
2023-02-08T21:13:22.007Z,63.43
2023-02-08T21:16:10.095Z,63.04
2023-02-08T21:18:57.054Z,63.04
2023-02-08T21:21:42.699Z,62.86
2023-02-08T21:24:28.921Z,63.27
2023-02-08T21:27:14.445Z,63.03
2023-02-08T21:29:59.856Z,63.42
2023-02-08T21:32:45.562Z,63.13
2023-02-08T21:35:31.103Z,62.89
2023-02-08T21:38:16.735Z,63.04
2023-02-08T21:41:10.161Z,62.87
2023-02-08T21:43:59.007Z,63.86
2023-02-08T21:46:44.882Z,63.76
2023-02-08T21:49:48.391Z,63.58
2023-02-08T21:52:52.227Z,63.49
2023-02-08T21:55:37.394Z,63.73
2023-02-08T21:58:22.904Z,63.60
2023-02-08T22:01:08.466Z,63.68
2023-02-08T22:03:53.620Z,63.69
2023-02-08T22:06:39.088Z,63.84
2023-02-08T22:09:24.368Z,63.53
2023-02-08T22:12:18.537Z,64.11
2023-02-08T22:15:04.077Z,63.58
2023-02-08T22:18:00.481Z,63.72
2023-02-08T22:20:46.093Z,63.55
2023-02-08T22:23:31.846Z,63.28
2023-02-08T22:26:17.425Z,63.73
2023-02-08T22:29:02.913Z,63.54
2023-02-08T22:31:48.302Z,63.82
2023-02-08T22:34:33.513Z,63.92
2023-02-08T22:37:19.135Z,64.16
2023-02-08T22:40:05.448Z,64.25
2023-02-08T22:42:50.585Z,64.13
2023-02-08T22:45:35.974Z,64.00
2023-02-08T22:48:21.341Z,63.97
2023-02-08T22:51:08.527Z,63.63
2023-02-08T22:53:55.841Z,63.79
2023-02-08T22:56:41.076Z,64.35
2023-02-08T22:59:26.656Z,64.02
2023-02-08T23:02:11.810Z,64.04
2023-02-08T23:04:57.178Z,63.78
2023-02-08T23:07:42.586Z,64.25
2023-02-08T23:10:27.962Z,64.08
2023-02-08T23:13:13.547Z,63.86
2023-02-08T23:15:58.919Z,64.17
2023-02-08T23:18:45.279Z,63.94
2023-02-08T23:21:31.239Z,64.00
2023-02-08T23:24:16.276Z,63.98
2023-02-08T23:27:01.718Z,64.41
2023-02-08T23:29:47.101Z,63.91
2023-02-08T23:32:32.436Z,64.76
2023-02-08T23:35:17.838Z,64.43
2023-02-08T23:38:02.999Z,64.81
2023-02-08T23:40:48.556Z,64.66
2023-02-08T23:43:33.622Z,64.35
2023-02-08T23:46:22.856Z,64.33
2023-02-08T23:49:08.125Z,64.51
2023-02-08T23:51:53.561Z,64.41
2023-02-08T23:54:38.805Z,64.48
2023-02-08T23:57:23.908Z,64.38
